THA02 VTBS-VTCC
Flight info
| Callsign | THA02 |
|---|---|
| Flight time | 0h 58m |
| Altitude | 36000 |
| Route | OLVUK1J OLVUK Y26 MARNI MARNI2A |
| Aircraft | A320/M-SDE3FGHIRWY/LB1 |
Departure
| Time | 2026-04-22 10:47 |
|---|---|
| Airport | Suvarnabhumi Airport (VTBS) |
Arrival
| Time | 2026-04-22 11:46 |
|---|---|
| Airport | Chiang Mai International Airport (VTCC) |
| Time | Latitude | Longitude | Altitude | Speed | Heading |
|---|---|---|---|---|---|
| 2026-04-22 10:34 | 13.69327 | 100.75556 | 13 ft | 0 kts | 284° |
| 2026-04-22 10:38 | 13.69326 | 100.75562 | 13 ft | 2 kts | 284° |
| 2026-04-22 10:38 | 13.69321 | 100.75581 | 16 ft | 3 kts | 280° |
| 2026-04-22 10:38 | 13.69318 | 100.75602 | 13 ft | 3 kts | 275° |
| 2026-04-22 10:38 | 13.69317 | 100.75623 | 15 ft | 3 kts | 265° |
| 2026-04-22 10:39 | 13.69321 | 100.75642 | 15 ft | 3 kts | 241° |
| 2026-04-22 10:39 | 13.69330 | 100.75654 | 14 ft | 2 kts | 197° |
| 2026-04-22 10:39 | 13.69336 | 100.75656 | 14 ft | 0 kts | 194° |
| 2026-04-22 10:44 | 13.69331 | 100.75655 | 14 ft | 3 kts | 192° |
| 2026-04-22 10:44 | 13.69300 | 100.75646 | 15 ft | 6 kts | 194° |
| 2026-04-22 10:45 | 13.69247 | 100.75632 | 13 ft | 9 kts | 194° |
| 2026-04-22 10:45 | 13.69179 | 100.75635 | 13 ft | 11 kts | 142° |
| 2026-04-22 10:45 | 13.69144 | 100.75712 | 13 ft | 13 kts | 104° |
| 2026-04-22 10:45 | 13.69119 | 100.75812 | 13 ft | 16 kts | 105° |
| 2026-04-22 10:46 | 13.69089 | 100.75930 | 13 ft | 18 kts | 104° |
| 2026-04-22 10:46 | 13.69059 | 100.76048 | 13 ft | 11 kts | 105° |
| 2026-04-22 10:46 | 13.69005 | 100.76061 | 13 ft | 0 kts | 196° |
| 2026-04-22 10:46 | 13.68992 | 100.76057 | 14 ft | 9 kts | 195° |
| 2026-04-22 10:47 | 13.68678 | 100.75975 | 16 ft | 81 kts | 194° |
| 2026-04-22 10:47 | 13.67942 | 100.75781 | 11 ft | 135 kts | 194° |
| 2026-04-22 10:47 | 13.66955 | 100.75524 | 363 ft | 151 kts | 192° |
| 2026-04-22 10:47 | 13.65918 | 100.75294 | 1007 ft | 153 kts | 186° |
| 2026-04-22 10:48 | 13.64841 | 100.75245 | 1526 ft | 159 kts | 180° |
| 2026-04-22 10:48 | 13.63662 | 100.75233 | 1708 ft | 181 kts | 180° |
| 2026-04-22 10:48 | 13.62315 | 100.75223 | 1940 ft | 206 kts | 180° |
| 2026-04-22 10:48 | 13.60847 | 100.75211 | 2429 ft | 219 kts | 178° |
| 2026-04-22 10:49 | 13.59276 | 100.75422 | 2909 ft | 238 kts | 168° |
| 2026-04-22 10:49 | 13.57603 | 100.75856 | 3425 ft | 254 kts | 163° |
| 2026-04-22 10:49 | 13.55873 | 100.76404 | 4181 ft | 263 kts | 162° |
| 2026-04-22 10:49 | 13.54103 | 100.76980 | 4949 ft | 270 kts | 162° |
| 2026-04-22 10:50 | 13.52300 | 100.77553 | 5686 ft | 278 kts | 163° |
| 2026-04-22 10:50 | 13.50423 | 100.78130 | 6419 ft | 284 kts | 163° |
| 2026-04-22 10:50 | 13.48467 | 100.78517 | 7149 ft | 289 kts | 178° |
| 2026-04-22 10:50 | 13.46461 | 100.78300 | 7912 ft | 293 kts | 197° |
| 2026-04-22 10:51 | 13.44660 | 100.77331 | 8669 ft | 295 kts | 221° |
| 2026-04-22 10:51 | 13.43399 | 100.75670 | 9431 ft | 297 kts | 246° |
| 2026-04-22 10:51 | 13.42929 | 100.73612 | 10098 ft | 302 kts | 269° |
| 2026-04-22 10:51 | 13.43255 | 100.71439 | 10285 ft | 323 kts | 285° |
| 2026-04-22 10:52 | 13.43835 | 100.69151 | 10666 ft | 336 kts | 285° |
| 2026-04-22 10:52 | 13.44443 | 100.66811 | 11275 ft | 341 kts | 285° |
| 2026-04-22 10:52 | 13.45056 | 100.64443 | 11916 ft | 344 kts | 285° |
| 2026-04-22 10:52 | 13.45447 | 100.62922 | 12326 ft | 347 kts | 285° |
| 2026-04-22 10:53 | 13.46699 | 100.59872 | 13150 ft | 350 kts | 307° |
| 2026-04-22 10:53 | 13.47752 | 100.58693 | 13538 ft | 351 kts | 321° |
| 2026-04-22 10:53 | 13.50647 | 100.57213 | 14918 ft | 356 kts | 347° |
| 2026-04-22 10:53 | 13.53147 | 100.57088 | 14674 ft | 359 kts | 2° |
| 2026-04-22 10:54 | 13.54807 | 100.57158 | 15083 ft | 360 kts | 2° |
| 2026-04-22 10:54 | 13.58143 | 100.57267 | 15843 ft | 362 kts | 1° |
| 2026-04-22 10:54 | 13.59824 | 100.57310 | 16206 ft | 364 kts | 1° |
| 2026-04-22 10:54 | 13.62372 | 100.57369 | 16777 ft | 366 kts | 1° |
| 2026-04-22 10:55 | 13.63293 | 100.57390 | 16960 ft | 368 kts | 1° |
| 2026-04-22 10:55 | 13.63325 | 100.57391 | 16962 ft | 368 kts | 1° |
| 2026-04-22 10:55 | 13.65942 | 100.57445 | 17526 ft | 370 kts | 1° |
| 2026-04-22 10:55 | 13.68540 | 100.57502 | 18025 ft | 374 kts | 1° |
| 2026-04-22 10:56 | 13.71145 | 100.57565 | 18480 ft | 376 kts | 1° |
| 2026-04-22 10:56 | 13.73778 | 100.57634 | 18934 ft | 379 kts | 2° |
| 2026-04-22 10:56 | 13.76393 | 100.57563 | 19351 ft | 383 kts | 353° |
| 2026-04-22 10:56 | 13.78983 | 100.56875 | 19747 ft | 389 kts | 339° |
| 2026-04-22 10:57 | 13.81389 | 100.55552 | 20184 ft | 393 kts | 330° |
| 2026-04-22 10:57 | 13.83732 | 100.54070 | 20615 ft | 396 kts | 329° |
| 2026-04-22 10:57 | 13.86101 | 100.52576 | 21033 ft | 400 kts | 330° |
| 2026-04-22 10:57 | 13.88489 | 100.51075 | 21432 ft | 404 kts | 330° |
| 2026-04-22 10:58 | 13.90897 | 100.49562 | 21827 ft | 407 kts | 330° |
| 2026-04-22 10:58 | 13.93307 | 100.48076 | 22220 ft | 410 kts | 333° |
| 2026-04-22 10:58 | 13.95927 | 100.46920 | 22620 ft | 410 kts | 344° |
| 2026-04-22 10:58 | 13.98672 | 100.46058 | 23020 ft | 413 kts | 345° |
| 2026-04-22 10:59 | 14.01441 | 100.45190 | 23392 ft | 416 kts | 344° |
| 2026-04-22 10:59 | 14.04229 | 100.44309 | 23725 ft | 419 kts | 345° |
| 2026-04-22 10:59 | 14.06988 | 100.43435 | 24053 ft | 421 kts | 344° |
| 2026-04-22 10:59 | 14.09794 | 100.42544 | 24394 ft | 423 kts | 344° |
| 2026-04-22 11:00 | 14.12617 | 100.41647 | 24747 ft | 425 kts | 344° |
| 2026-04-22 11:00 | 14.15453 | 100.40745 | 25105 ft | 426 kts | 344° |
| 2026-04-22 11:00 | 14.18295 | 100.39841 | 25462 ft | 428 kts | 344° |
| 2026-04-22 11:00 | 14.21154 | 100.38931 | 25818 ft | 430 kts | 344° |
| 2026-04-22 11:01 | 14.24026 | 100.38019 | 26170 ft | 432 kts | 344° |
| 2026-04-22 11:01 | 14.26902 | 100.37106 | 26512 ft | 433 kts | 344° |
| 2026-04-22 11:01 | 14.29762 | 100.36200 | 26839 ft | 435 kts | 344° |
| 2026-04-22 11:01 | 14.32671 | 100.35278 | 27174 ft | 437 kts | 344° |
| 2026-04-22 11:02 | 14.35588 | 100.34351 | 27494 ft | 439 kts | 343° |
| 2026-04-22 11:02 | 14.38515 | 100.33417 | 27803 ft | 441 kts | 343° |
| 2026-04-22 11:02 | 14.41465 | 100.32473 | 28124 ft | 443 kts | 343° |
| 2026-04-22 11:02 | 14.44387 | 100.31539 | 28450 ft | 445 kts | 343° |
| 2026-04-22 11:03 | 14.47299 | 100.30435 | 28794 ft | 447 kts | 335° |
| 2026-04-22 11:03 | 14.50110 | 100.29027 | 29138 ft | 450 kts | 334° |
| 2026-04-22 11:03 | 14.52928 | 100.27605 | 29475 ft | 452 kts | 334° |
| 2026-04-22 11:03 | 14.55765 | 100.26174 | 29818 ft | 454 kts | 334° |
| 2026-04-22 11:04 | 14.58615 | 100.24739 | 30100 ft | 456 kts | 334° |
| 2026-04-22 11:04 | 14.61452 | 100.23308 | 30379 ft | 458 kts | 334° |
| 2026-04-22 11:04 | 14.64334 | 100.21852 | 30676 ft | 459 kts | 334° |
| 2026-04-22 11:04 | 14.67194 | 100.20642 | 30980 ft | 460 kts | 342° |
| 2026-04-22 11:05 | 14.70236 | 100.19642 | 32989 ft | 458 kts | 342° |
| 2026-04-22 11:05 | 14.73283 | 100.18637 | 31677 ft | 458 kts | 341° |
| 2026-04-22 11:05 | 14.76314 | 100.17631 | 32113 ft | 456 kts | 341° |
| 2026-04-22 11:05 | 14.79341 | 100.16629 | 32542 ft | 455 kts | 342° |
| 2026-04-22 11:06 | 14.82360 | 100.15644 | 32945 ft | 455 kts | 341° |
| 2026-04-22 11:06 | 14.85342 | 100.14678 | 33383 ft | 453 kts | 342° |
| 2026-04-22 11:06 | 14.88353 | 100.13706 | 33809 ft | 452 kts | 342° |
| 2026-04-22 11:06 | 14.91353 | 100.12738 | 34184 ft | 450 kts | 341° |
| 2026-04-22 11:07 | 14.94351 | 100.11766 | 34556 ft | 449 kts | 342° |
| 2026-04-22 11:07 | 14.97334 | 100.10796 | 34892 ft | 449 kts | 341° |
| 2026-04-22 11:07 | 15.00312 | 100.09825 | 35223 ft | 448 kts | 341° |
| 2026-04-22 11:07 | 15.03251 | 100.08867 | 35550 ft | 448 kts | 341° |
| 2026-04-22 11:08 | 15.06225 | 100.07896 | 35689 ft | 447 kts | 341° |
| 2026-04-22 11:08 | 15.12135 | 100.05964 | 35720 ft | 443 kts | 341° |
| 2026-04-22 11:09 | 15.18021 | 100.04051 | 35718 ft | 443 kts | 341° |
| 2026-04-22 11:09 | 15.23869 | 100.02150 | 35720 ft | 443 kts | 341° |
| 2026-04-22 11:10 | 15.29751 | 100.00230 | 35721 ft | 443 kts | 341° |
| 2026-04-22 11:10 | 15.35634 | 99.98307 | 35721 ft | 443 kts | 341° |
| 2026-04-22 11:11 | 15.41491 | 99.96397 | 35720 ft | 443 kts | 341° |
| 2026-04-22 11:11 | 15.47384 | 99.94466 | 35722 ft | 444 kts | 341° |
| 2026-04-22 11:12 | 15.53278 | 99.92532 | 35724 ft | 444 kts | 341° |
| 2026-04-22 11:12 | 15.59147 | 99.90619 | 35726 ft | 444 kts | 341° |
| 2026-04-22 11:13 | 15.65059 | 99.88685 | 35727 ft | 444 kts | 341° |
| 2026-04-22 11:13 | 15.70956 | 99.86755 | 35729 ft | 444 kts | 341° |
| 2026-04-22 11:14 | 15.76848 | 99.84824 | 35730 ft | 445 kts | 341° |
| 2026-04-22 11:14 | 15.82758 | 99.82875 | 35732 ft | 445 kts | 341° |
| 2026-04-22 11:15 | 15.88662 | 99.80928 | 35731 ft | 445 kts | 341° |
| 2026-04-22 11:15 | 15.94537 | 99.79004 | 35731 ft | 445 kts | 341° |
| 2026-04-22 11:16 | 16.00462 | 99.77058 | 35726 ft | 445 kts | 341° |
| 2026-04-22 11:16 | 16.06331 | 99.75123 | 35727 ft | 445 kts | 341° |
| 2026-04-22 11:17 | 16.12258 | 99.73173 | 35731 ft | 445 kts | 341° |
| 2026-04-22 11:17 | 16.18134 | 99.71232 | 35728 ft | 446 kts | 340° |
| 2026-04-22 11:18 | 16.24057 | 99.69280 | 35730 ft | 446 kts | 341° |
| 2026-04-22 11:18 | 16.29985 | 99.67330 | 35735 ft | 446 kts | 340° |
| 2026-04-22 11:19 | 16.35874 | 99.65386 | 35736 ft | 446 kts | 340° |
| 2026-04-22 11:19 | 16.41795 | 99.63431 | 35730 ft | 446 kts | 340° |
| 2026-04-22 11:20 | 16.47712 | 99.61471 | 35729 ft | 445 kts | 340° |
| 2026-04-22 11:20 | 16.53590 | 99.59528 | 35735 ft | 445 kts | 340° |
| 2026-04-22 11:21 | 16.59506 | 99.57576 | 35728 ft | 445 kts | 340° |
| 2026-04-22 11:21 | 16.65420 | 99.55621 | 35728 ft | 445 kts | 340° |
| 2026-04-22 11:22 | 16.71287 | 99.53677 | 35681 ft | 445 kts | 340° |
| 2026-04-22 11:22 | 16.74238 | 99.52698 | 35443 ft | 444 kts | 340° |
| 2026-04-22 11:22 | 16.77184 | 99.51719 | 35211 ft | 443 kts | 340° |
| 2026-04-22 11:22 | 16.80118 | 99.50744 | 34881 ft | 439 kts | 340° |
| 2026-04-22 11:23 | 16.82997 | 99.49786 | 34406 ft | 437 kts | 340° |
| 2026-04-22 11:23 | 16.85904 | 99.48821 | 33923 ft | 437 kts | 340° |
| 2026-04-22 11:23 | 16.88803 | 99.47860 | 33406 ft | 435 kts | 340° |
| 2026-04-22 11:23 | 16.91694 | 99.46903 | 32923 ft | 433 kts | 340° |
| 2026-04-22 11:24 | 16.94557 | 99.45956 | 32432 ft | 430 kts | 340° |
| 2026-04-22 11:24 | 16.97373 | 99.45023 | 31962 ft | 427 kts | 340° |
| 2026-04-22 11:24 | 17.00200 | 99.44086 | 31485 ft | 424 kts | 340° |
| 2026-04-22 11:24 | 17.03010 | 99.43151 | 31019 ft | 422 kts | 340° |
| 2026-04-22 11:25 | 17.05802 | 99.42219 | 30564 ft | 419 kts | 340° |
| 2026-04-22 11:25 | 17.08536 | 99.41306 | 30117 ft | 417 kts | 340° |
| 2026-04-22 11:25 | 17.11293 | 99.40388 | 29655 ft | 414 kts | 341° |
| 2026-04-22 11:25 | 17.14025 | 99.39476 | 29193 ft | 410 kts | 341° |
| 2026-04-22 11:26 | 17.16737 | 99.38571 | 28778 ft | 406 kts | 341° |
| 2026-04-22 11:26 | 17.19412 | 99.37677 | 28359 ft | 402 kts | 340° |
| 2026-04-22 11:26 | 17.22065 | 99.36789 | 27957 ft | 398 kts | 340° |
| 2026-04-22 11:26 | 17.24670 | 99.35918 | 27555 ft | 395 kts | 340° |
| 2026-04-22 11:27 | 17.27284 | 99.35049 | 27150 ft | 392 kts | 340° |
| 2026-04-22 11:27 | 17.29883 | 99.34186 | 26754 ft | 390 kts | 340° |
| 2026-04-22 11:27 | 17.32457 | 99.33329 | 26344 ft | 388 kts | 340° |
| 2026-04-22 11:27 | 17.35027 | 99.32473 | 25930 ft | 386 kts | 340° |
| 2026-04-22 11:28 | 17.37579 | 99.31622 | 25526 ft | 384 kts | 340° |
| 2026-04-22 11:28 | 17.40097 | 99.30784 | 25106 ft | 382 kts | 340° |
| 2026-04-22 11:28 | 17.42636 | 99.29935 | 24676 ft | 381 kts | 340° |
| 2026-04-22 11:28 | 17.45160 | 99.29087 | 24247 ft | 380 kts | 340° |
| 2026-04-22 11:29 | 17.47677 | 99.28241 | 23807 ft | 379 kts | 340° |
| 2026-04-22 11:29 | 17.50157 | 99.27412 | 23376 ft | 378 kts | 340° |
| 2026-04-22 11:29 | 17.52664 | 99.26574 | 22876 ft | 377 kts | 340° |
| 2026-04-22 11:29 | 17.55153 | 99.25742 | 22437 ft | 374 kts | 340° |
| 2026-04-22 11:30 | 17.57635 | 99.24911 | 21986 ft | 372 kts | 340° |
| 2026-04-22 11:30 | 17.60090 | 99.24087 | 21551 ft | 369 kts | 340° |
| 2026-04-22 11:30 | 17.62536 | 99.23265 | 21122 ft | 367 kts | 340° |
| 2026-04-22 11:30 | 17.64935 | 99.22462 | 20687 ft | 365 kts | 340° |
| 2026-04-22 11:31 | 17.67360 | 99.21655 | 20253 ft | 363 kts | 340° |
| 2026-04-22 11:31 | 17.69773 | 99.20852 | 19807 ft | 362 kts | 340° |
| 2026-04-22 11:31 | 17.72176 | 99.20050 | 19370 ft | 360 kts | 340° |
| 2026-04-22 11:31 | 17.74535 | 99.19257 | 18940 ft | 359 kts | 340° |
| 2026-04-22 11:32 | 17.76922 | 99.18452 | 18506 ft | 357 kts | 340° |
| 2026-04-22 11:32 | 17.79263 | 99.17663 | 18075 ft | 357 kts | 341° |
| 2026-04-22 11:32 | 17.81624 | 99.16869 | 17597 ft | 355 kts | 340° |
| 2026-04-22 11:32 | 17.83966 | 99.16083 | 17166 ft | 352 kts | 341° |
| 2026-04-22 11:33 | 17.86284 | 99.15309 | 16740 ft | 349 kts | 340° |
| 2026-04-22 11:33 | 17.88586 | 99.14540 | 16320 ft | 346 kts | 340° |
| 2026-04-22 11:33 | 17.90879 | 99.13768 | 15897 ft | 343 kts | 340° |
| 2026-04-22 11:33 | 17.93154 | 99.12999 | 15481 ft | 342 kts | 340° |
| 2026-04-22 11:34 | 17.95415 | 99.12237 | 15063 ft | 340 kts | 340° |
| 2026-04-22 11:34 | 17.97640 | 99.11490 | 14659 ft | 338 kts | 340° |
| 2026-04-22 11:34 | 17.99873 | 99.10742 | 14253 ft | 336 kts | 340° |
| 2026-04-22 11:34 | 18.02093 | 99.09997 | 13846 ft | 334 kts | 340° |
| 2026-04-22 11:35 | 18.04298 | 99.09256 | 13428 ft | 332 kts | 341° |
| 2026-04-22 11:35 | 18.06495 | 99.08517 | 13009 ft | 330 kts | 342° |
| 2026-04-22 11:35 | 18.08678 | 99.07782 | 12607 ft | 326 kts | 341° |
| 2026-04-22 11:35 | 18.10829 | 99.07055 | 12203 ft | 324 kts | 341° |
| 2026-04-22 11:36 | 18.12969 | 99.06331 | 11817 ft | 321 kts | 341° |
| 2026-04-22 11:36 | 18.15089 | 99.05617 | 11413 ft | 319 kts | 341° |
| 2026-04-22 11:36 | 18.17169 | 99.04916 | 11089 ft | 314 kts | 341° |
| 2026-04-22 11:36 | 18.19244 | 99.04218 | 10816 ft | 308 kts | 341° |
| 2026-04-22 11:37 | 18.21267 | 99.03538 | 10553 ft | 302 kts | 341° |
| 2026-04-22 11:37 | 18.23255 | 99.02869 | 10283 ft | 296 kts | 341° |
| 2026-04-22 11:37 | 18.25211 | 99.02209 | 9830 ft | 296 kts | 341° |
| 2026-04-22 11:37 | 18.27139 | 99.01560 | 9441 ft | 286 kts | 340° |
| 2026-04-22 11:38 | 18.29020 | 99.00925 | 9077 ft | 285 kts | 340° |
| 2026-04-22 11:38 | 18.30907 | 99.00285 | 8713 ft | 282 kts | 340° |
| 2026-04-22 11:38 | 18.34626 | 98.99025 | 8009 ft | 280 kts | 340° |
| 2026-04-22 11:39 | 18.36480 | 98.98400 | 7750 ft | 278 kts | 340° |
| 2026-04-22 11:39 | 18.38290 | 98.97793 | 7658 ft | 268 kts | 340° |
| 2026-04-22 11:39 | 18.40042 | 98.97203 | 7549 ft | 260 kts | 340° |
| 2026-04-22 11:39 | 18.41734 | 98.96631 | 7435 ft | 251 kts | 340° |
| 2026-04-22 11:40 | 18.42845 | 98.96328 | 7306 ft | 249 kts | 348° |
| 2026-04-22 11:40 | 18.45229 | 98.96175 | 6529 ft | 268 kts | 359° |
| 2026-04-22 11:40 | 18.47115 | 98.96205 | 6136 ft | 272 kts | 359° |
| 2026-04-22 11:40 | 18.49025 | 98.96219 | 5783 ft | 274 kts | 358° |
| 2026-04-22 11:41 | 18.50277 | 98.96223 | 5562 ft | 268 kts | 358° |
| 2026-04-22 11:41 | 18.52114 | 98.96227 | 5233 ft | 259 kts | 358° |
| 2026-04-22 11:41 | 18.54446 | 98.96232 | 4814 ft | 247 kts | 358° |
| 2026-04-22 11:41 | 18.55593 | 98.96235 | 4617 ft | 241 kts | 358° |
| 2026-04-22 11:42 | 18.57805 | 98.96240 | 4219 ft | 239 kts | 358° |
| 2026-04-22 11:42 | 18.58905 | 98.96243 | 4020 ft | 238 kts | 358° |
| 2026-04-22 11:42 | 18.60546 | 98.96247 | 3721 ft | 232 kts | 359° |
| 2026-04-22 11:42 | 18.62120 | 98.96251 | 3436 ft | 220 kts | 359° |
| 2026-04-22 11:43 | 18.63599 | 98.96255 | 3196 ft | 205 kts | 359° |
| 2026-04-22 11:43 | 18.64984 | 98.96259 | 2939 ft | 193 kts | 360° |
| 2026-04-22 11:43 | 18.66283 | 98.96262 | 2720 ft | 183 kts | 0° |
| 2026-04-22 11:43 | 18.67485 | 98.96265 | 2484 ft | 163 kts | 359° |
| 2026-04-22 11:44 | 18.68600 | 98.96268 | 2284 ft | 160 kts | 360° |
| 2026-04-22 11:44 | 18.69709 | 98.96271 | 2100 ft | 157 kts | 0° |
| 2026-04-22 11:44 | 18.70784 | 98.96273 | 1921 ft | 153 kts | 1° |
| 2026-04-22 11:44 | 18.71831 | 98.96276 | 1731 ft | 150 kts | 1° |
| 2026-04-22 11:45 | 18.72862 | 98.96279 | 1539 ft | 146 kts | 2° |
| 2026-04-22 11:45 | 18.73873 | 98.96281 | 1326 ft | 144 kts | 360° |
| 2026-04-22 11:45 | 18.74866 | 98.96288 | 1151 ft | 143 kts | 1° |
| 2026-04-22 11:45 | 18.75846 | 98.96296 | 1032 ft | 127 kts | 1° |
| 2026-04-22 11:46 | 18.76551 | 98.96290 | 1032 ft | 77 kts | 0° |
| 2026-04-22 11:46 | 18.76915 | 98.96289 | 1032 ft | 32 kts | 359° |
| 2026-04-22 11:46 | 18.77119 | 98.96298 | 1032 ft | 16 kts | 29° |
| 2026-04-22 11:46 | 18.77137 | 98.96372 | 1032 ft | 11 kts | 90° |
| 2026-04-22 11:47 | 18.77137 | 98.96462 | 1032 ft | 14 kts | 90° |
| 2026-04-22 11:47 | 18.77112 | 98.96565 | 1032 ft | 16 kts | 128° |
| 2026-04-22 11:47 | 18.77032 | 98.96627 | 1032 ft | 14 kts | 155° |
| 2026-04-22 11:47 | 18.76953 | 98.96646 | 1032 ft | 12 kts | 178° |
| 2026-04-22 11:48 | 18.76902 | 98.96670 | 1032 ft | 8 kts | 102° |
| 2026-04-22 11:48 | 18.76907 | 98.96713 | 1032 ft | 4 kts | 75° |
| 2026-04-22 11:48 | 18.76907 | 98.96727 | 1032 ft | 1 kts | 85° |
| 2026-04-22 11:48 | 18.76908 | 98.96733 | 1032 ft | 0 kts | 87° |